Time;durP1;ratioP1;P1;durP2;ratioP2;P2;SDS_P1;SDS_P2;PMS_P1;PMS_P2;Temp;Humidity;BMP_temperature;BMP_pressure;BME280_temperature;BME280_humidity;BME280_pressure;Samples;Min_cycle;Max_cycle;Signal;HPM_P1;HPM_P2
2022/04/08 00:01:45;;;;;;;8.83;2.33;;;;;;;;;;5019460;28;20207;-64
2022/04/08 00:04:11;;;;;;;4.50;2.00;;;;;;;;;;5018196;28;20187;-65
2022/04/08 00:06:37;;;;;;;6.10;1.97;;;;;;;;;;5018015;28;20203;-65
2022/04/08 00:09:03;;;;;;;5.67;2.00;;;;;;;;;;5028741;28;20558;-64
2022/04/08 00:11:29;;;;;;;8.90;2.60;;;;;;;;;;5012911;28;20246;-65
2022/04/08 00:13:55;;;;;;;9.00;2.37;;;;;;;;;;5013540;28;20202;-64
2022/04/08 00:16:21;;;;;;;11.17;2.43;;;;;;;;;;5030811;28;20216;-63
2022/04/08 00:18:47;;;;;;;8.03;2.23;;;;;;;;;;5031702;28;20198;-64
2022/04/08 00:21:13;;;;;;;8.43;2.30;;;;;;;;;;5030930;28;20251;-63
2022/04/08 00:23:39;;;;;;;8.77;2.23;;;;;;;;;;5010470;28;20188;-64
2022/04/08 00:26:05;;;;;;;7.40;2.37;;;;;;;;;;5010549;28;20184;-64
2022/04/08 00:28:31;;;;;;;7.70;2.37;;;;;;;;;;5025737;28;20287;-65
2022/04/08 00:30:57;;;;;;;9.27;2.80;;;;;;;;;;5005816;28;20208;-65
2022/04/08 00:33:23;;;;;;;13.97;3.17;;;;;;;;;;5008474;28;20179;-66
2022/04/08 00:35:49;;;;;;;6.70;2.33;;;;;;;;;;5028223;28;20203;-65
2022/04/08 00:38:15;;;;;;;5.70;2.13;;;;;;;;;;5028023;28;20202;-65
2022/04/08 00:40:41;;;;;;;6.60;2.40;;;;;;;;;;5028758;28;20180;-65
2022/04/08 00:43:14;;;;;;;8.90;2.40;;;;;;;;;;5028135;28;20267;-66
2022/04/08 00:45:40;;;;;;;8.70;2.57;;;;;;;;;;5032555;28;20175;-63
2022/04/08 00:48:07;;;;;;;10.13;2.73;;;;;;;;;;5030930;28;20207;-64
2022/04/08 00:50:35;;;;;;;5.10;2.27;;;;;;;;;;5002053;28;20683;-63
2022/04/08 00:53:01;;;;;;;8.27;2.63;;;;;;;;;;5019018;28;20172;-65
2022/04/08 00:55:27;;;;;;;11.73;2.80;;;;;;;;;;5018428;28;20592;-66
2022/04/08 00:57:53;;;;;;;6.37;3.00;;;;;;;;;;5018502;28;20196;-66
2022/04/08 01:00:22;;;;;;;8.37;2.30;;;;;;;;;;5018015;28;20183;-64
2022/04/08 01:02:48;;;;;;;7.13;3.03;;;;;;;;;;4999891;28;20298;-65
2022/04/08 01:05:14;;;;;;;10.93;2.83;;;;;;;;;;5018299;28;20207;-65
2022/04/08 01:07:40;;;;;;;13.70;3.80;;;;;;;;;;5018126;28;20203;-63
2022/04/08 01:10:06;;;;;;;9.40;2.70;;;;;;;;;;5017432;28;20270;-65
2022/04/08 01:12:32;;;;;;;12.97;3.17;;;;;;;;;;5000237;28;20184;-64
2022/04/08 01:14:59;;;;;;;9.03;2.40;;;;;;;;;;5018094;28;20259;-61
2022/04/08 01:17:25;;;;;;;14.23;3.43;;;;;;;;;;4999713;28;20223;-64
2022/04/08 01:19:51;;;;;;;12.30;2.90;;;;;;;;;;5017656;28;20176;-65
2022/04/08 01:22:20;;;;;;;10.67;3.67;;;;;;;;;;5017295;28;20188;-62
2022/04/08 01:24:50;;;;;;;7.90;2.87;;;;;;;;;;5017494;28;20207;-62
2022/04/08 01:27:19;;;;;;;8.30;3.10;;;;;;;;;;5017472;28;20230;-62
2022/04/08 01:29:45;;;;;;;11.63;3.20;;;;;;;;;;4999647;28;20294;-62
2022/04/08 01:32:11;;;;;;;11.97;3.07;;;;;;;;;;5017336;28;20231;-63
2022/04/08 01:34:37;;;;;;;7.70;3.50;;;;;;;;;;4999708;28;20183;-63
2022/04/08 01:37:03;;;;;;;8.93;2.60;;;;;;;;;;4999355;28;20196;-62
2022/04/08 01:39:28;;;;;;;12.13;2.77;;;;;;;;;;5017130;28;20183;-63
2022/04/08 01:41:54;;;;;;;12.93;3.27;;;;;;;;;;5017880;28;20632;-63
2022/04/08 01:44:20;;;;;;;7.97;2.70;;;;;;;;;;4999556;28;20188;-63
2022/04/08 01:46:47;;;;;;;11.80;3.37;;;;;;;;;;5017332;28;20683;-63
2022/04/08 01:49:13;;;;;;;11.80;3.07;;;;;;;;;;4999495;28;20186;-63
2022/04/08 01:51:39;;;;;;;10.20;3.17;;;;;;;;;;4999833;28;20200;-63
2022/04/08 01:54:05;;;;;;;10.97;3.13;;;;;;;;;;5018194;28;20222;-63
2022/04/08 01:56:31;;;;;;;12.67;2.97;;;;;;;;;;5003759;28;20698;-63
2022/04/08 01:58:57;;;;;;;12.93;3.30;;;;;;;;;;5026904;28;20211;-63
2022/04/08 02:01:23;;;;;;;13.33;3.40;;;;;;;;;;5026714;28;20172;-63
2022/04/08 02:03:49;;;;;;;11.77;3.53;;;;;;;;;;5026406;28;20187;-63
2022/04/08 02:06:15;;;;;;;7.67;2.97;;;;;;;;;;5022854;28;20179;-63
2022/04/08 02:08:41;;;;;;;11.03;2.90;;;;;;;;;;5022043;28;20191;-63
2022/04/08 02:11:07;;;;;;;9.47;3.27;;;;;;;;;;5003829;28;20200;-63
2022/04/08 02:13:33;;;;;;;12.00;3.60;;;;;;;;;;5021923;28;20184;-63
2022/04/08 02:15:59;;;;;;;9.83;3.40;;;;;;;;;;5002986;28;20199;-63
2022/04/08 02:18:25;;;;;;;9.80;3.17;;;;;;;;;;5016950;28;20231;-63
2022/04/08 02:20:51;;;;;;;10.67;3.20;;;;;;;;;;4998763;28;20187;-63
2022/04/08 02:23:17;;;;;;;13.43;2.77;;;;;;;;;;5016628;28;20255;-63
2022/04/08 02:25:45;;;;;;;9.63;3.30;;;;;;;;;;4999028;28;20184;-63
2022/04/08 02:28:11;;;;;;;8.63;2.87;;;;;;;;;;5015627;28;20211;-63
2022/04/08 02:30:37;;;;;;;11.20;3.03;;;;;;;;;;5015470;28;20199;-62
2022/04/08 02:33:04;;;;;;;9.60;2.77;;;;;;;;;;5016112;28;20226;-63
2022/04/08 02:35:30;;;;;;;10.67;3.27;;;;;;;;;;5016166;28;20689;-63
2022/04/08 02:37:56;;;;;;;13.40;3.03;;;;;;;;;;5015908;28;20192;-63
2022/04/08 02:40:22;;;;;;;9.03;3.17;;;;;;;;;;5015791;28;20242;-63
2022/04/08 02:42:48;;;;;;;12.23;3.70;;;;;;;;;;5016351;28;20176;-63
2022/04/08 02:45:14;;;;;;;8.77;3.23;;;;;;;;;;4998449;28;20571;-63
2022/04/08 02:47:41;;;;;;;11.90;2.77;;;;;;;;;;5016036;28;20585;-63
2022/04/08 02:50:07;;;;;;;10.90;3.07;;;;;;;;;;5015908;28;20222;-63
2022/04/08 02:52:33;;;;;;;10.13;2.87;;;;;;;;;;5015594;28;20524;-63
2022/04/08 02:54:59;;;;;;;11.43;3.10;;;;;;;;;;5015553;28;20259;-63
2022/04/08 02:57:25;;;;;;;14.20;2.77;;;;;;;;;;5015812;28;20613;-63
2022/04/08 02:59:53;;;;;;;14.33;3.40;;;;;;;;;;4998004;28;20596;-63
2022/04/08 03:02:19;;;;;;;17.53;3.17;;;;;;;;;;4997789;28;20198;-64
2022/04/08 03:04:45;;;;;;;7.93;2.40;;;;;;;;;;5015499;28;20188;-63
2022/04/08 03:07:11;;;;;;;8.47;3.03;;;;;;;;;;4999287;28;20218;-63
2022/04/08 03:09:37;;;;;;;11.97;2.90;;;;;;;;;;5002005;28;20233;-63
2022/04/08 03:12:04;;;;;;;10.43;2.80;;;;;;;;;;5001093;28;20204;-63
2022/04/08 03:14:31;;;;;;;10.13;2.40;;;;;;;;;;5018222;28;20183;-61
2022/04/08 03:16:57;;;;;;;14.27;2.73;;;;;;;;;;4998005;28;20199;-63
2022/04/08 03:19:23;;;;;;;7.83;2.50;;;;;;;;;;4997476;28;20264;-63
2022/04/08 03:21:49;;;;;;;9.10;2.33;;;;;;;;;;5015442;28;20237;-63
2022/04/08 03:24:15;;;;;;;8.93;3.27;;;;;;;;;;4997764;28;20179;-63
2022/04/08 03:26:41;;;;;;;7.23;2.83;;;;;;;;;;4997499;28;20211;-63
2022/04/08 03:29:07;;;;;;;5.93;2.73;;;;;;;;;;4997733;28;20184;-62
2022/04/08 03:31:33;;;;;;;11.23;2.63;;;;;;;;;;5015018;28;20253;-63
2022/04/08 03:33:59;;;;;;;12.63;2.90;;;;;;;;;;4997207;28;20191;-63
2022/04/08 03:36:25;;;;;;;7.40;2.43;;;;;;;;;;4996922;28;20234;-63
2022/04/08 03:38:50;;;;;;;9.87;2.60;;;;;;;;;;5014768;28;20176;-62
2022/04/08 03:41:16;;;;;;;6.67;2.30;;;;;;;;;;5014924;28;20186;-62
2022/04/08 03:43:42;;;;;;;11.43;2.70;;;;;;;;;;4998776;28;20218;-62
2022/04/08 03:46:08;;;;;;;4.67;2.03;;;;;;;;;;4998831;28;20194;-62
2022/04/08 03:48:34;;;;;;;9.20;2.53;;;;;;;;;;5001996;28;20195;-62
2022/04/08 03:51:00;;;;;;;7.50;2.60;;;;;;;;;;5016132;28;20685;-62
2022/04/08 03:53:26;;;;;;;16.17;4.60;;;;;;;;;;4999083;28;20180;-62
2022/04/08 03:55:52;;;;;;;8.57;2.70;;;;;;;;;;5014505;28;20172;-63
2022/04/08 03:58:18;;;;;;;12.17;2.97;;;;;;;;;;5014555;28;20387;-62
2022/04/08 04:00:44;;;;;;;9.20;2.77;;;;;;;;;;5014673;28;20559;-63
2022/04/08 04:03:10;;;;;;;14.33;3.50;;;;;;;;;;5014277;28;20551;-62
2022/04/08 04:05:36;;;;;;;10.70;2.60;;;;;;;;;;5014687;28;20540;-62
2022/04/08 04:08:02;;;;;;;9.20;2.80;;;;;;;;;;5014158;28;20208;-62
2022/04/08 04:10:29;;;;;;;11.60;3.10;;;;;;;;;;5014277;28;20290;-62
2022/04/08 04:12:55;;;;;;;7.63;2.47;;;;;;;;;;5014403;28;20186;-63
2022/04/08 04:15:20;;;;;;;12.33;3.23;;;;;;;;;;5014028;28;20172;-62
2022/04/08 04:17:46;;;;;;;10.20;3.23;;;;;;;;;;4997260;28;20210;-62
2022/04/08 04:20:13;;;;;;;12.37;3.30;;;;;;;;;;5018306;28;20180;-62
2022/04/08 04:22:39;;;;;;;9.93;3.47;;;;;;;;;;5018165;28;20194;-62
2022/04/08 04:25:05;;;;;;;9.30;3.33;;;;;;;;;;5018753;28;20267;-63
2022/04/08 04:27:31;;;;;;;12.27;3.10;;;;;;;;;;5000147;28;20654;-62
2022/04/08 04:29:57;;;;;;;10.53;2.97;;;;;;;;;;5018056;28;20187;-62
2022/04/08 04:32:23;;;;;;;10.23;2.87;;;;;;;;;;5018261;28;20195;-62
2022/04/08 04:34:49;;;;;;;7.43;2.57;;;;;;;;;;5000279;28;20191;-62
2022/04/08 04:37:16;;;;;;;10.13;2.97;;;;;;;;;;5017777;28;20200;-62
2022/04/08 04:39:42;;;;;;;8.90;2.90;;;;;;;;;;5000549;28;20184;-62
2022/04/08 04:42:08;;;;;;;7.27;2.70;;;;;;;;;;5017918;28;20180;-62
2022/04/08 04:44:34;;;;;;;12.00;3.23;;;;;;;;;;5018273;28;20176;-63
2022/04/08 04:47:00;;;;;;;9.20;3.23;;;;;;;;;;4999952;28;20210;-62
2022/04/08 04:49:26;;;;;;;12.10;3.30;;;;;;;;;;5017983;28;20184;-63
2022/04/08 04:51:52;;;;;;;10.87;3.53;;;;;;;;;;5017471;28;20211;-63
2022/04/08 04:54:18;;;;;;;7.13;3.47;;;;;;;;;;5017854;28;20187;-63
2022/04/08 04:56:44;;;;;;;11.20;3.77;;;;;;;;;;4999967;28;20204;-63
2022/04/08 04:59:11;;;;;;;10.30;3.93;;;;;;;;;;5017678;28;20171;-62
2022/04/08 05:01:37;;;;;;;11.03;3.90;;;;;;;;;;5017282;28;20184;-63
2022/04/08 05:04:03;;;;;;;8.80;3.37;;;;;;;;;;4999848;28;20188;-63
2022/04/08 05:06:29;;;;;;;10.97;3.77;;;;;;;;;;5017443;28;20208;-62
2022/04/08 05:08:55;;;;;;;10.67;4.03;;;;;;;;;;5042156;22;20255;-66
2022/04/08 05:11:21;;;;;;;12.57;4.83;;;;;;;;;;4999140;28;20196;-66
2022/04/08 05:13:47;;;;;;;9.20;4.20;;;;;;;;;;5016433;28;20165;-66
2022/04/08 05:16:12;;;;;;;9.23;4.33;;;;;;;;;;5017101;28;20528;-66
2022/04/08 05:18:39;;;;;;;8.60;4.60;;;;;;;;;;4999069;28;20578;-65
2022/04/08 05:21:05;;;;;;;18.40;4.50;;;;;;;;;;4998683;28;20270;-66
2022/04/08 05:23:32;;;;;;;16.53;4.47;;;;;;;;;;5016665;28;20176;-66
2022/04/08 05:25:59;;;;;;;12.37;5.07;;;;;;;;;;5016512;28;20182;-66
2022/04/08 05:28:25;;;;;;;14.90;6.00;;;;;;;;;;5015637;28;20184;-66
2022/04/08 05:30:51;;;;;;;11.60;5.00;;;;;;;;;;5016761;28;20199;-66
2022/04/08 05:33:17;;;;;;;14.33;6.30;;;;;;;;;;5016123;28;20226;-67
2022/04/08 05:35:43;;;;;;;12.13;5.57;;;;;;;;;;5001123;28;20259;-66
2022/04/08 05:38:09;;;;;;;12.73;5.53;;;;;;;;;;5007612;28;20191;-66
2022/04/08 05:40:35;;;;;;;13.10;5.90;;;;;;;;;;5007453;28;20216;-67
2022/04/08 05:43:01;;;;;;;16.10;6.47;;;;;;;;;;5005409;28;20274;-66
2022/04/08 05:45:27;;;;;;;16.17;6.97;;;;;;;;;;5016910;28;20187;-66
2022/04/08 05:47:54;;;;;;;8.27;5.53;;;;;;;;;;5015985;28;20184;-65
2022/04/08 05:50:20;;;;;;;13.13;5.53;;;;;;;;;;4997912;28;20580;-65
2022/04/08 05:52:47;;;;;;;14.40;5.67;;;;;;;;;;5015829;28;20180;-65
2022/04/08 05:55:13;;;;;;;8.13;4.90;;;;;;;;;;5015963;28;20525;-66
2022/04/08 05:57:40;;;;;;;12.20;5.00;;;;;;;;;;5015692;28;20177;-66
2022/04/08 06:00:08;;;;;;;9.83;5.10;;;;;;;;;;4997939;28;20195;-66
2022/04/08 06:02:34;;;;;;;14.80;6.13;;;;;;;;;;4998154;28;20179;-65
2022/04/08 06:05:00;;;;;;;14.60;7.60;;;;;;;;;;4997804;28;20194;-65
2022/04/08 06:07:26;;;;;;;11.20;6.33;;;;;;;;;;5015318;28;20183;-65
2022/04/08 06:09:52;;;;;;;19.67;11.70;;;;;;;;;;5015410;28;20766;-64
2022/04/08 06:12:18;;;;;;;17.63;9.07;;;;;;;;;;5015954;28;20203;-64
2022/04/08 06:14:44;;;;;;;15.90;7.37;;;;;;;;;;5015843;28;20263;-65
2022/04/08 06:17:10;;;;;;;13.03;6.00;;;;;;;;;;5016042;28;20184;-65
2022/04/08 06:19:36;;;;;;;11.13;6.20;;;;;;;;;;4998490;28;20208;-65
2022/04/08 06:22:02;;;;;;;26.63;11.67;;;;;;;;;;5016085;28;20188;-64
2022/04/08 06:24:28;;;;;;;11.97;7.67;;;;;;;;;;5015792;28;20242;-67
2022/04/08 06:26:54;;;;;;;12.40;6.70;;;;;;;;;;5014876;28;20175;-64
2022/04/08 06:29:20;;;;;;;14.30;8.50;;;;;;;;;;5014760;28;20223;-64
2022/04/08 06:31:46;;;;;;;10.67;8.77;;;;;;;;;;4997121;28;20211;-64
2022/04/08 06:34:12;;;;;;;15.23;7.90;;;;;;;;;;4997111;28;20203;-64
2022/04/08 06:36:38;;;;;;;12.03;8.77;;;;;;;;;;5014838;28;20179;-65
2022/04/08 06:39:05;;;;;;;16.63;8.67;;;;;;;;;;4997064;28;20235;-64
2022/04/08 06:41:31;;;;;;;12.13;7.97;;;;;;;;;;4996311;28;20662;-65
2022/04/08 06:43:58;;;;;;;13.17;8.37;;;;;;;;;;4996971;28;20282;-65
2022/04/08 06:46:24;;;;;;;10.67;8.27;;;;;;;;;;4997042;28;20228;-65
2022/04/08 06:48:50;;;;;;;14.20;6.77;;;;;;;;;;4996886;28;20581;-65
2022/04/08 06:51:16;;;;;;;11.67;8.60;;;;;;;;;;4996764;28;20207;-65
2022/04/08 06:53:42;;;;;;;11.70;8.70;;;;;;;;;;5014372;28;20180;-65
2022/04/08 06:56:08;;;;;;;11.67;7.00;;;;;;;;;;4997313;28;20219;-65
2022/04/08 06:58:38;;;;;;;13.00;8.90;;;;;;;;;;5014231;28;20612;-65
2022/04/08 07:01:05;;;;;;;15.70;8.30;;;;;;;;;;5014467;28;20160;-65
2022/04/08 07:03:31;;;;;;;17.93;9.37;;;;;;;;;;5014335;28;20234;-65
2022/04/08 07:05:57;;;;;;;12.30;7.60;;;;;;;;;;5014342;28;20188;-65
2022/04/08 07:08:23;;;;;;;11.43;7.40;;;;;;;;;;5013928;28;20183;-65
2022/04/08 07:10:49;;;;;;;11.57;8.33;;;;;;;;;;5014350;28;20192;-65
2022/04/08 07:13:16;;;;;;;14.17;10.17;;;;;;;;;;5014595;28;20569;-65
2022/04/08 07:15:42;;;;;;;13.23;7.83;;;;;;;;;;5014604;28;20180;-65
2022/04/08 07:18:08;;;;;;;11.00;7.67;;;;;;;;;;5013887;28;20266;-65
2022/04/08 07:20:34;;;;;;;12.67;7.90;;;;;;;;;;4996441;28;20179;-65
2022/04/08 07:23:02;;;;;;;10.17;7.53;;;;;;;;;;4996207;28;20210;-64
2022/04/08 07:25:29;;;;;;;11.97;8.60;;;;;;;;;;5014081;28;20698;-65
2022/04/08 07:28:01;;;;;;;11.70;7.30;;;;;;;;;;5013927;28;20255;-65
2022/04/08 07:30:27;;;;;;;11.77;7.53;;;;;;;;;;5013753;28;20229;-65
2022/04/08 07:32:54;;;;;;;12.73;7.30;;;;;;;;;;4996198;28;20654;-65
2022/04/08 07:35:21;;;;;;;11.37;6.40;;;;;;;;;;5013706;28;20738;-65
2022/04/08 07:37:47;;;;;;;9.60;6.10;;;;;;;;;;5014025;28;20255;-65
2022/04/08 07:40:13;;;;;;;10.50;6.60;;;;;;;;;;4996024;28;20254;-65
2022/04/08 07:42:40;;;;;;;10.97;6.27;;;;;;;;;;5013488;28;20194;-65
2022/04/08 07:45:06;;;;;;;11.53;6.10;;;;;;;;;;4995964;28;20206;-65
2022/04/08 07:47:33;;;;;;;12.23;6.50;;;;;;;;;;5013597;28;20179;-65
2022/04/08 07:49:59;;;;;;;8.33;5.90;;;;;;;;;;5013693;28;20662;-66
2022/04/08 07:52:26;;;;;;;7.60;5.83;;;;;;;;;;4995654;28;20575;-65
2022/04/08 07:54:53;;;;;;;8.30;5.40;;;;;;;;;;5013423;28;20172;-65
2022/04/08 07:57:19;;;;;;;8.73;6.00;;;;;;;;;;5013620;28;20176;-65
2022/04/08 07:59:45;;;;;;;7.73;4.87;;;;;;;;;;5013385;28;20199;-65
2022/04/08 08:02:10;;;;;;;6.30;5.00;;;;;;;;;;5013362;28;20180;-65
2022/04/08 08:04:37;;;;;;;7.53;5.60;;;;;;;;;;5013606;28;20258;-65
2022/04/08 08:07:03;;;;;;;10.57;5.13;;;;;;;;;;5013737;28;20632;-65
2022/04/08 08:09:29;;;;;;;8.57;4.77;;;;;;;;;;5013284;28;20219;-65
2022/04/08 08:11:55;;;;;;;7.20;4.33;;;;;;;;;;5013326;28;20207;-65
2022/04/08 08:14:21;;;;;;;7.47;4.70;;;;;;;;;;5013349;28;20555;-65
2022/04/08 08:16:47;;;;;;;8.73;5.03;;;;;;;;;;4995629;28;20176;-65
2022/04/08 08:19:14;;;;;;;9.47;5.13;;;;;;;;;;5013567;28;20207;-65
2022/04/08 08:21:40;;;;;;;7.47;4.17;;;;;;;;;;5013306;28;20187;-65
2022/04/08 08:24:06;;;;;;;8.53;3.93;;;;;;;;;;5013342;28;20189;-65
2022/04/08 08:26:32;;;;;;;7.20;4.70;;;;;;;;;;5013374;28;20184;-65
2022/04/08 08:28:59;;;;;;;7.23;4.37;;;;;;;;;;5013321;28;20200;-65
2022/04/08 08:31:25;;;;;;;4.87;3.50;;;;;;;;;;4995832;28;20671;-65
2022/04/08 08:33:51;;;;;;;5.17;3.73;;;;;;;;;;5013558;28;20183;-65
2022/04/08 08:36:17;;;;;;;7.43;4.07;;;;;;;;;;4995726;28;20728;-68
2022/04/08 08:38:43;;;;;;;9.50;3.83;;;;;;;;;;5013365;28;20196;-65
2022/04/08 08:41:10;;;;;;;8.13;3.83;;;;;;;;;;4995427;28;20180;-65
2022/04/08 08:43:36;;;;;;;6.67;3.47;;;;;;;;;;5012971;28;20555;-65
2022/04/08 08:46:06;;;;;;;8.57;4.03;;;;;;;;;;5013014;28;20178;-65
2022/04/08 08:48:33;;;;;;;5.97;3.50;;;;;;;;;;4995238;28;20242;-65
2022/04/08 08:51:01;;;;;;;7.13;3.83;;;;;;;;;;4995299;28;20211;-65
2022/04/08 08:53:29;;;;;;;5.70;3.20;;;;;;;;;;5013053;28;20172;-65
2022/04/08 08:55:55;;;;;;;5.23;3.87;;;;;;;;;;5013026;28;20175;-65
2022/04/08 08:58:21;;;;;;;5.97;3.57;;;;;;;;;;4995181;28;20183;-65
2022/04/08 09:00:47;;;;;;;6.27;3.37;;;;;;;;;;5012899;28;20217;-65
2022/04/08 09:03:13;;;;;;;4.97;3.00;;;;;;;;;;5012781;28;20180;-65
2022/04/08 09:05:44;;;;;;;4.70;3.10;;;;;;;;;;5016289;28;20230;-65
2022/04/08 09:08:10;;;;;;;6.67;3.60;;;;;;;;;;5016151;28;20262;-64
2022/04/08 09:10:43;;;;;;;9.17;3.63;;;;;;;;;;5016277;28;20184;-65
2022/04/08 09:13:09;;;;;;;4.57;2.90;;;;;;;;;;5016291;28;20178;-64
2022/04/08 09:15:37;;;;;;;8.67;4.03;;;;;;;;;;5016618;28;20211;-65
2022/04/08 09:18:13;;;;;;;8.00;3.87;;;;;;;;;;4998614;28;20187;-64
2022/04/08 09:20:46;;;;;;;7.10;3.70;;;;;;;;;;5016520;28;20182;-65
2022/04/08 09:23:13;;;;;;;7.80;3.80;;;;;;;;;;4998345;28;20234;-65
2022/04/08 09:25:40;;;;;;;8.63;3.90;;;;;;;;;;4998661;28;20614;-64
2022/04/08 09:28:07;;;;;;;7.37;2.93;;;;;;;;;;5015916;28;20183;-64
2022/04/08 09:30:33;;;;;;;8.40;3.97;;;;;;;;;;5015633;28;20702;-64
2022/04/08 09:32:59;;;;;;;5.90;3.20;;;;;;;;;;5015600;28;20173;-65
2022/04/08 09:35:25;;;;;;;7.73;3.13;;;;;;;;;;5015736;28;20263;-64
2022/04/08 09:37:58;;;;;;;5.97;3.13;;;;;;;;;;5015735;28;20207;-63
2022/04/08 09:40:24;;;;;;;5.77;2.40;;;;;;;;;;5015691;28;20192;-64
2022/04/08 09:42:50;;;;;;;8.77;2.97;;;;;;;;;;4998137;28;20581;-64
2022/04/08 09:45:26;;;;;;;6.43;3.23;;;;;;;;;;4998049;28;20666;-63
2022/04/08 09:47:52;;;;;;;5.10;3.07;;;;;;;;;;5015961;28;20557;-64
2022/04/08 09:50:18;;;;;;;5.90;3.27;;;;;;;;;;4997903;28;20223;-64
2022/04/08 09:52:45;;;;;;;6.73;2.97;;;;;;;;;;5015971;28;20707;-64
2022/04/08 09:55:11;;;;;;;8.77;3.77;;;;;;;;;;4997658;28;20275;-65
2022/04/08 09:57:38;;;;;;;5.53;2.50;;;;;;;;;;5015475;28;20176;-64
2022/04/08 10:00:05;;;;;;;7.30;2.60;;;;;;;;;;5015264;28;20196;-64
2022/04/08 10:02:33;;;;;;;4.33;2.20;;;;;;;;;;4997480;28;20234;-64
2022/04/08 10:05:00;;;;;;;5.80;2.37;;;;;;;;;;5015155;28;20183;-64
2022/04/08 10:07:27;;;;;;;5.07;2.50;;;;;;;;;;4997338;28;20183;-65
2022/04/08 10:10:13;;;;;;;4.53;2.50;;;;;;;;;;5014897;28;20219;-64
2022/04/08 10:12:44;;;;;;;5.53;2.40;;;;;;;;;;5014865;28;20214;-64
2022/04/08 10:15:14;;;;;;;4.03;1.90;;;;;;;;;;5015032;28;20613;-64
2022/04/08 10:17:40;;;;;;;7.03;2.33;;;;;;;;;;4997190;28;20171;-64
2022/04/08 10:20:20;;;;;;;5.87;2.20;;;;;;;;;;4997083;28;20290;-64
2022/04/08 10:22:46;;;;;;;5.53;2.20;;;;;;;;;;5014711;28;20601;-65
2022/04/08 10:25:16;;;;;;;6.70;2.30;;;;;;;;;;5014754;28;20267;-64
2022/04/08 10:27:43;;;;;;;6.27;2.20;;;;;;;;;;4997110;28;20278;-64
2022/04/08 10:30:19;;;;;;;3.53;2.10;;;;;;;;;;5014672;28;20689;-64
2022/04/08 10:32:47;;;;;;;4.50;1.90;;;;;;;;;;5014476;28;20314;-64
2022/04/08 10:35:22;;;;;;;3.57;1.90;;;;;;;;;;4997067;28;20183;-64
2022/04/08 10:37:54;;;;;;;5.37;1.93;;;;;;;;;;4997010;28;20171;-64
2022/04/08 10:40:20;;;;;;;3.97;1.60;;;;;;;;;;5014279;28;20196;-65
2022/04/08 10:42:56;;;;;;;2.77;1.97;;;;;;;;;;4997041;28;20570;-64
2022/04/08 10:45:22;;;;;;;3.10;1.93;;;;;;;;;;4996735;28;20174;-65
2022/04/08 10:47:49;;;;;;;3.10;2.10;;;;;;;;;;5014369;28;20184;-64
2022/04/08 10:50:29;;;;;;;2.80;1.90;;;;;;;;;;4996650;28;20552;-64
2022/04/08 10:53:15;;;;;;;3.70;2.40;;;;;;;;;;5014531;28;20183;-64
2022/04/08 10:55:46;;;;;;;4.47;2.50;;;;;;;;;;5000662;28;20242;-65
2022/04/08 10:58:13;;;;;;;5.13;2.30;;;;;;;;;;4996526;28;20219;-63
2022/04/08 11:00:39;;;;;;;2.63;2.33;;;;;;;;;;5014736;28;20176;-64
2022/04/08 11:03:05;;;;;;;5.77;2.33;;;;;;;;;;5014282;28;20665;-64
2022/04/08 11:05:36;;;;;;;4.57;2.20;;;;;;;;;;5013844;28;20203;-64
2022/04/08 11:08:02;;;;;;;6.63;2.70;;;;;;;;;;4996470;28;20197;-65
2022/04/08 11:10:31;;;;;;;4.10;2.70;;;;;;;;;;5013768;28;20298;-64
2022/04/08 11:12:57;;;;;;;5.20;2.50;;;;;;;;;;5014007;28;20171;-64
2022/04/08 11:15:24;;;;;;;4.43;2.80;;;;;;;;;;5013948;28;20237;-65
2022/04/08 11:17:51;;;;;;;2.37;2.03;;;;;;;;;;5013909;28;20183;-64
2022/04/08 11:20:18;;;;;;;3.57;2.37;;;;;;;;;;5013928;28;20253;-64
2022/04/08 11:22:46;;;;;;;5.00;2.57;;;;;;;;;;5014835;28;20551;-64
2022/04/08 11:25:24;;;;;;;3.47;2.00;;;;;;;;;;4997554;28;20253;-64
2022/04/08 11:27:59;;;;;;;3.10;2.17;;;;;;;;;;5013883;28;20306;-64
2022/04/08 11:30:25;;;;;;;4.37;2.27;;;;;;;;;;5013680;28;20199;-64
2022/04/08 11:32:51;;;;;;;3.60;2.50;;;;;;;;;;5013649;28;20527;-64
2022/04/08 11:35:17;;;;;;;4.17;2.43;;;;;;;;;;5017396;28;20251;-64
2022/04/08 11:37:43;;;;;;;5.67;2.70;;;;;;;;;;5020937;28;20194;-64
2022/04/08 11:40:15;;;;;;;3.27;2.60;;;;;;;;;;5020648;28;20214;-64
2022/04/08 11:42:41;;;;;;;5.23;3.43;;;;;;;;;;5004504;28;20235;-64
2022/04/08 11:45:09;;;;;;;4.87;2.30;;;;;;;;;;5015575;28;20214;-64
2022/04/08 11:47:39;;;;;;;6.20;3.20;;;;;;;;;;5013659;28;20179;-64
2022/04/08 11:50:06;;;;;;;3.80;2.60;;;;;;;;;;5013670;28;20191;-64
2022/04/08 11:52:32;;;;;;;5.50;3.50;;;;;;;;;;5013434;28;20221;-64
2022/04/08 11:55:02;;;;;;;3.67;3.07;;;;;;;;;;4995980;28;20179;-64
2022/04/08 11:57:29;;;;;;;2.60;2.40;;;;;;;;;;4995962;28;20180;-64
2022/04/08 11:59:56;;;;;;;9.40;3.10;;;;;;;;;;5013296;28;20230;-64
2022/04/08 12:02:22;;;;;;;4.47;2.40;;;;;;;;;;5013331;28;20221;-64
2022/04/08 12:04:50;;;;;;;3.53;2.10;;;;;;;;;;5013563;28;20187;-64
2022/04/08 12:07:28;;;;;;;3.27;2.20;;;;;;;;;;5013497;28;20659;-64
2022/04/08 12:09:54;;;;;;;5.10;2.37;;;;;;;;;;5013532;28;20207;-64
2022/04/08 12:12:24;;;;;;;5.70;2.60;;;;;;;;;;5013303;28;20208;-64
2022/04/08 12:14:50;;;;;;;3.90;2.13;;;;;;;;;;5013626;28;20632;-64
2022/04/08 12:17:16;;;;;;;3.03;2.30;;;;;;;;;;5013456;28;20186;-64
2022/04/08 12:19:42;;;;;;;4.90;2.53;;;;;;;;;;4995590;28;20203;-64
2022/04/08 12:22:12;;;;;;;4.10;2.30;;;;;;;;;;4995771;28;20234;-64
2022/04/08 12:24:40;;;;;;;5.10;2.87;;;;;;;;;;5014504;28;20612;-64
2022/04/08 12:27:12;;;;;;;3.00;2.37;;;;;;;;;;4995555;28;20215;-65
2022/04/08 12:29:40;;;;;;;5.43;2.80;;;;;;;;;;5013466;28;20607;-64
2022/04/08 12:32:12;;;;;;;3.70;2.50;;;;;;;;;;4995404;28;20203;-65
2022/04/08 12:34:38;;;;;;;3.73;2.73;;;;;;;;;;4995423;28;20174;-64
2022/04/08 12:37:04;;;;;;;4.57;2.40;;;;;;;;;;4995409;28;20234;-65
2022/04/08 12:39:30;;;;;;;6.63;2.57;;;;;;;;;;4997034;28;20254;-64
2022/04/08 12:41:59;;;;;;;3.80;2.53;;;;;;;;;;4999752;28;20274;-65
2022/04/08 12:44:24;;;;;;;4.60;2.60;;;;;;;;;;5000101;28;20222;-65
2022/04/08 12:46:51;;;;;;;6.00;1.90;;;;;;;;;;5000099;28;20192;-65
2022/04/08 12:49:17;;;;;;;3.00;2.23;;;;;;;;;;5017755;28;20200;-66
2022/04/08 12:51:43;;;;;;;3.43;2.10;;;;;;;;;;5017495;28;20207;-65
2022/04/08 12:54:11;;;;;;;3.80;1.83;;;;;;;;;;5017524;28;20212;-65
2022/04/08 12:56:37;;;;;;;5.23;2.10;;;;;;;;;;4999712;28;20234;-65
2022/04/08 12:59:03;;;;;;;4.27;2.13;;;;;;;;;;5016677;28;20196;-64
2022/04/08 13:01:29;;;;;;;3.40;1.87;;;;;;;;;;5016381;28;20263;-65
2022/04/08 13:03:56;;;;;;;5.20;2.30;;;;;;;;;;5016373;28;20293;-65
2022/04/08 13:06:22;;;;;;;4.07;2.27;;;;;;;;;;4998777;28;20279;-65
2022/04/08 13:08:48;;;;;;;3.50;1.97;;;;;;;;;;4998618;28;20309;-65
2022/04/08 13:11:14;;;;;;;3.23;2.23;;;;;;;;;;5016338;28;20658;-64
2022/04/08 13:13:39;;;;;;;5.47;2.20;;;;;;;;;;5016461;28;20172;-65
2022/04/08 13:16:05;;;;;;;6.43;1.97;;;;;;;;;;5016275;28;20207;-65
2022/04/08 13:18:31;;;;;;;4.00;1.80;;;;;;;;;;5016489;28;20223;-65
2022/04/08 13:20:58;;;;;;;2.70;1.80;;;;;;;;;;5016571;28;20188;-65
2022/04/08 13:23:24;;;;;;;4.33;2.07;;;;;;;;;;5016143;28;20184;-65
2022/04/08 13:25:50;;;;;;;4.23;1.87;;;;;;;;;;5016066;28;20187;-65
2022/04/08 13:28:16;;;;;;;4.83;2.10;;;;;;;;;;5016061;28;20247;-64
2022/04/08 13:30:43;;;;;;;6.00;2.13;;;;;;;;;;5016044;28;20237;-64
2022/04/08 13:33:08;;;;;;;5.43;2.50;;;;;;;;;;5015972;28;20180;-65
2022/04/08 13:35:35;;;;;;;3.67;1.73;;;;;;;;;;4998533;28;20536;-64
2022/04/08 13:38:02;;;;;;;4.27;2.10;;;;;;;;;;4999143;28;20184;-65
2022/04/08 13:40:28;;;;;;;3.70;1.93;;;;;;;;;;5016201;28;20195;-64
2022/04/08 13:42:55;;;;;;;5.00;1.87;;;;;;;;;;4998313;28;20234;-65
2022/04/08 13:45:21;;;;;;;6.23;2.07;;;;;;;;;;5015878;28;20183;-65
2022/04/08 13:47:49;;;;;;;4.53;2.17;;;;;;;;;;5015978;28;20184;-64
2022/04/08 13:50:15;;;;;;;4.53;2.17;;;;;;;;;;4997955;28;20207;-64
2022/04/08 13:52:41;;;;;;;5.40;2.43;;;;;;;;;;5015690;28;20637;-65
2022/04/08 13:55:07;;;;;;;3.10;1.93;;;;;;;;;;5015403;28;20207;-65
2022/04/08 13:57:34;;;;;;;4.77;2.47;;;;;;;;;;4997812;28;20180;-65
2022/04/08 14:00:03;;;;;;;3.97;2.43;;;;;;;;;;4997959;28;20207;-65
2022/04/08 14:02:29;;;;;;;3.53;1.87;;;;;;;;;;4998428;28;20609;-65
2022/04/08 14:04:55;;;;;;;5.50;2.10;;;;;;;;;;4998548;28;20267;-66
2022/04/08 14:07:22;;;;;;;3.63;2.13;;;;;;;;;;5002166;28;20230;-67
2022/04/08 14:09:49;;;;;;;4.37;2.33;;;;;;;;;;5017575;28;20758;-65
2022/04/08 14:12:15;;;;;;;3.13;2.10;;;;;;;;;;4997541;28;20234;-65
2022/04/08 14:14:41;;;;;;;5.53;2.40;;;;;;;;;;5015316;28;20259;-65
2022/04/08 14:17:07;;;;;;;4.30;2.37;;;;;;;;;;5015161;28;20179;-65
2022/04/08 14:19:33;;;;;;;3.37;2.07;;;;;;;;;;5014922;28;20262;-65
2022/04/08 14:21:59;;;;;;;7.83;2.67;;;;;;;;;;5015071;28;20176;-65
2022/04/08 14:24:26;;;;;;;2.80;2.13;;;;;;;;;;4997217;28;20234;-65
2022/04/08 14:26:52;;;;;;;3.93;2.10;;;;;;;;;;5015634;28;20233;-65
2022/04/08 14:29:18;;;;;;;6.97;2.60;;;;;;;;;;4997443;28;20199;-65
2022/04/08 14:31:44;;;;;;;6.53;2.60;;;;;;;;;;4997194;28;20215;-65
2022/04/08 14:34:10;;;;;;;5.30;2.97;;;;;;;;;;5015158;28;20553;-65
2022/04/08 14:36:39;;;;;;;3.77;2.20;;;;;;;;;;5014805;28;20551;-65